Time;durP1;ratioP1;P1;durP2;ratioP2;P2;SDS_P1;SDS_P2;PMS_P1;PMS_P2;Temp;Humidity;BMP_temperature;BMP_pressure;BME280_temperature;BME280_humidity;BME280_pressure;Samples;Min_cycle;Max_cycle;Signal;HPM_P1;HPM_P2
2021/12/30 00:01:56;;;;;;;23.10;12.00;;;;;;;2.96;86.20;96991.30;108101;1272;59729;-70
2021/12/30 00:04:25;;;;;;;44.60;26.70;;;;;;;2.99;85.93;96996.27;108095;1272;59662;-71
2021/12/30 00:06:55;;;;;;;27.80;17.60;;;;;;;3.01;85.86;97003.45;108079;1271;71590;-70
2021/12/30 00:09:25;;;;;;;45.50;27.70;;;;;;;3.01;86.33;97007.92;108111;1274;67901;-69
2021/12/30 00:11:56;;;;;;;31.70;19.30;;;;;;;2.99;86.44;97014.90;108172;1275;69443;-68
2021/12/30 00:14:40;;;;;;;44.00;25.40;;;;;;;3.00;85.97;97022.76;108042;1272;59709;-70
2021/12/30 00:17:10;;;;;;;35.90;22.40;;;;;;;2.96;86.49;97022.63;108051;1274;59690;-69
2021/12/30 00:19:39;;;;;;;30.70;16.80;;;;;;;2.92;86.49;97027.50;108160;1275;70418;-69
2021/12/30 00:22:09;;;;;;;26.50;17.20;;;;;;;2.90;86.28;97033.73;108180;1274;68515;-70
2021/12/30 00:24:38;;;;;;;40.90;25.50;;;;;;;2.91;86.22;97043.02;108269;1274;68685;-67
2021/12/30 00:27:08;;;;;;;48.00;28.60;;;;;;;2.91;86.55;97046.11;108257;1274;59826;-69
2021/12/30 00:29:37;;;;;;;47.50;28.00;;;;;;;2.86;87.02;97048.75;108098;1272;59748;-68
2021/12/30 00:32:06;;;;;;;47.00;28.60;;;;;;;2.81;87.54;97050.71;108128;1272;71529;-69
2021/12/30 00:34:36;;;;;;;52.90;29.70;;;;;;;2.77;87.82;97054.86;108054;1272;69147;-70
2021/12/30 00:37:06;;;;;;;61.70;36.80;;;;;;;2.76;87.86;97055.77;108079;1274;68805;-70
2021/12/30 00:39:35;;;;;;;46.10;29.80;;;;;;;2.72;88.05;97050.79;108121;1274;59763;-69
2021/12/30 00:42:05;;;;;;;53.40;31.30;;;;;;;2.69;88.36;97050.77;108157;1272;59785;-68
2021/12/30 00:44:34;;;;;;;51.90;29.50;;;;;;;2.67;88.43;97050.70;108149;1272;71643;-69
2021/12/30 00:47:04;;;;;;;35.60;21.90;;;;;;;2.65;88.46;97056.83;108233;1272;68107;-70
2021/12/30 00:49:33;;;;;;;45.90;26.70;;;;;;;2.66;88.14;97060.04;108140;1272;69458;-68
2021/12/30 00:52:03;;;;;;;50.70;30.80;;;;;;;2.65;88.71;97063.04;108065;1271;59670;-67
2021/12/30 00:54:32;;;;;;;49.40;28.00;;;;;;;2.61;88.89;97069.71;108062;1273;59697;-69
2021/12/30 00:57:01;;;;;;;48.40;28.70;;;;;;;2.59;89.02;97071.05;108148;1272;70788;-70
2021/12/30 00:59:31;;;;;;;34.00;20.30;;;;;;;2.61;88.82;97071.27;108019;1271;68456;-69
2021/12/30 01:02:00;;;;;;;29.20;17.30;;;;;;;2.65;88.39;97071.42;107726;1276;306528;-69
2021/12/30 01:04:29;;;;;;;24.00;15.10;;;;;;;2.69;87.94;97076.77;108018;1274;59707;-69
2021/12/30 01:06:58;;;;;;;21.50;13.20;;;;;;;2.74;87.65;97078.91;108122;1272;59714;-70
2021/12/30 01:09:27;;;;;;;25.70;15.30;;;;;;;2.78;87.32;97075.45;108175;1274;71694;-70
2021/12/30 01:11:58;;;;;;;22.60;14.40;;;;;;;2.83;87.12;97076.44;108199;1274;67770;-69
2021/12/30 01:14:30;;;;;;;23.70;14.30;;;;;;;2.86;86.92;97080.93;108193;1274;68370;-70
2021/12/30 01:17:12;;;;;;;22.10;13.80;;;;;;;2.88;86.80;97081.88;108092;1272;59725;-69
2021/12/30 01:19:42;;;;;;;36.30;23.20;;;;;;;2.90;87.08;97080.24;108400;1273;59763;-68
2021/12/30 01:22:16;;;;;;;35.00;21.20;;;;;;;2.90;87.10;97082.68;107999;1275;71565;-68
2021/12/30 01:24:46;;;;;;;33.10;19.90;;;;;;;2.89;87.05;97081.16;108170;1273;67642;-70
2021/12/30 01:27:16;;;;;;;;;;;;;;;2.90;86.87;97082.30;108430;1269;68720;-67
2021/12/30 01:29:47;;;;;;;21.90;11.80;;;;;;;2.92;86.63;97082.89;108420;1269;59693;-69
2021/12/30 01:32:17;;;;;;;23.70;16.10;;;;;;;2.94;86.47;97082.77;108122;1272;59676;-70
2021/12/30 01:34:48;;;;;;;17.40;10.40;;;;;;;2.96;86.39;97077.03;108129;1274;71248;-71
2021/12/30 01:37:20;;;;;;;29.50;19.00;;;;;;;2.99;86.17;97074.31;108122;1274;68689;-71
2021/12/30 01:39:52;;;;;;;23.80;15.60;;;;;;;2.99;86.14;97077.19;108235;1274;67606;-70
2021/12/30 01:42:22;;;;;;;20.40;12.50;;;;;;;3.02;86.16;97081.41;108329;1269;60098;-67
2021/12/30 01:44:51;;;;;;;18.50;12.50;;;;;;;3.04;86.02;97084.02;108077;1274;59740;-67
2021/12/30 01:47:23;;;;;;;20.20;13.00;;;;;;;3.06;85.85;97081.72;108104;1273;71640;-67
2021/12/30 01:49:53;;;;;;;23.80;15.40;;;;;;;3.07;85.72;97087.00;108128;1274;67826;-68
2021/12/30 01:52:23;;;;;;;25.00;16.00;;;;;;;3.06;85.77;97083.62;108154;1272;69465;-69
2021/12/30 01:54:52;;;;;;;27.60;16.90;;;;;;;3.05;85.69;97087.09;108064;1274;59702;-69
2021/12/30 01:57:22;;;;;;;30.40;18.30;;;;;;;3.04;85.83;97087.30;108099;1272;59683;-70
2021/12/30 01:59:51;;;;;;;;;;;;;;;2.99;86.17;97090.97;108104;1274;71255;-69
2021/12/30 02:02:21;;;;;;;23.80;15.00;;;;;;;2.96;86.04;97088.89;108114;1272;67900;-69
2021/12/30 02:04:52;;;;;;;31.40;19.10;;;;;;;2.97;85.99;97091.25;108060;1275;68759;-70
2021/12/30 02:07:22;;;;;;;21.30;14.10;;;;;;;2.96;86.17;97092.86;108050;1275;59792;-68
2021/12/30 02:09:57;;;;;;;18.60;12.40;;;;;;;2.97;85.88;97092.11;108198;1272;59707;-69
2021/12/30 02:12:30;;;;;;;16.80;11.20;;;;;;;3.00;85.76;97094.55;107998;1275;70619;-68
2021/12/30 02:15:00;;;;;;;13.40;8.10;;;;;;;3.02;85.63;97098.77;108063;1272;67489;-69
2021/12/30 02:17:29;;;;;;;14.80;9.20;;;;;;;3.03;85.50;97101.11;108026;1272;68683;-68
2021/12/30 02:20:01;;;;;;;16.40;9.20;;;;;;;3.04;85.54;97101.40;108042;1273;59775;-69
2021/12/30 02:22:30;;;;;;;16.60;10.90;;;;;;;3.05;85.48;97105.52;108084;1275;59686;-70
2021/12/30 02:25:03;;;;;;;;;;;;;;;3.06;85.41;97106.14;108106;1273;71446;-68
2021/12/30 02:27:33;;;;;;;17.40;12.60;;;;;;;3.06;85.52;97105.80;108107;1272;68468;-69
2021/12/30 02:30:03;;;;;;;15.90;9.90;;;;;;;3.08;85.49;97110.02;108038;1272;69252;-69
2021/12/30 02:32:32;;;;;;;15.10;10.00;;;;;;;3.09;85.35;97113.59;108126;1274;59738;-68
2021/12/30 02:35:02;;;;;;;10.40;5.60;;;;;;;3.11;85.30;97116.29;108084;1274;59598;-68
2021/12/30 02:37:32;;;;;;;15.90;10.80;;;;;;;3.12;85.21;97122.59;108132;1274;71558;-67
2021/12/30 02:40:01;;;;;;;14.50;8.50;;;;;;;3.12;85.11;97127.42;108133;1274;68643;-68
2021/12/30 02:42:31;;;;;;;13.50;7.70;;;;;;;3.13;84.97;97131.86;108160;1273;68487;-70
2021/12/30 02:45:01;;;;;;;15.90;10.90;;;;;;;3.13;84.89;97132.36;108100;1271;59750;-67
2021/12/30 02:47:33;;;;;;;19.70;14.50;;;;;;;3.13;84.92;97130.45;108130;1273;59674;-70
2021/12/30 02:50:03;;;;;;;19.40;13.30;;;;;;;3.13;85.12;97130.80;108060;1273;73071;-70
2021/12/30 02:52:32;;;;;;;16.60;11.10;;;;;;;3.13;85.04;97134.75;108112;1272;67770;-69
2021/12/30 02:55:03;;;;;;;21.20;14.30;;;;;;;3.14;84.98;97136.45;108016;1272;68621;-69
2021/12/30 02:57:33;;;;;;;20.70;14.20;;;;;;;3.14;84.98;97139.70;108048;1272;59715;-70
2021/12/30 03:00:06;;;;;;;17.20;12.30;;;;;;;3.15;84.86;97140.55;107992;1275;60066;-70
2021/12/30 03:02:38;;;;;;;16.40;10.00;;;;;;;3.16;84.77;97145.30;108333;1269;70602;-65
2021/12/30 03:05:14;;;;;;;15.40;10.00;;;;;;;3.17;84.67;97142.50;108003;1272;67864;-70
2021/12/30 03:07:44;;;;;;;18.30;11.50;;;;;;;3.18;84.69;97142.09;108371;1273;69266;-69
2021/12/30 03:10:18;;;;;;;17.60;11.30;;;;;;;3.20;84.58;97149.08;108436;1272;59687;-68
2021/12/30 03:12:53;;;;;;;18.20;10.00;;;;;;;3.21;84.57;97145.95;108321;1273;59754;-70
2021/12/30 03:15:26;;;;;;;20.50;12.50;;;;;;;3.20;84.44;97153.02;108051;1273;71583;-69
2021/12/30 03:17:56;;;;;;;17.70;10.80;;;;;;;3.21;84.53;97157.97;108372;1273;68692;-69
2021/12/30 03:20:27;;;;;;;19.90;13.60;;;;;;;3.21;84.43;97165.38;108190;1272;69486;-69
2021/12/30 03:22:57;;;;;;;15.70;10.50;;;;;;;3.22;84.47;97165.00;108210;1273;59754;-69
2021/12/30 03:25:26;;;;;;;16.30;10.90;;;;;;;3.22;84.49;97171.36;108175;1273;59729;-69
2021/12/30 03:27:56;;;;;;;24.70;14.70;;;;;;;3.22;84.46;97175.65;108068;1272;71568;-70
2021/12/30 03:30:26;;;;;;;24.40;15.00;;;;;;;3.22;84.48;97182.57;108148;1272;68506;-69
2021/12/30 03:32:55;;;;;;;25.90;16.50;;;;;;;3.21;84.32;97184.82;108302;1269;68507;-68
2021/12/30 03:35:25;;;;;;;23.90;15.20;;;;;;;3.19;84.53;97193.39;108405;1269;59773;-70
2021/12/30 03:37:55;;;;;;;18.60;10.30;;;;;;;3.18;84.30;97198.08;108281;1272;59764;-67
2021/12/30 03:40:24;;;;;;;;;;;;;;;3.17;84.29;97201.73;108140;1274;71567;-68
2021/12/30 03:42:55;;;;;;;20.60;12.90;;;;;;;3.13;84.98;97202.60;108007;1274;68581;-68
2021/12/30 03:45:25;;;;;;;22.30;14.10;;;;;;;3.07;85.51;97211.84;108044;1272;68472;-68
2021/12/30 03:47:55;;;;;;;16.20;10.10;;;;;;;3.03;85.36;97215.80;108285;1273;59716;-66
2021/12/30 03:50:27;;;;;;;18.70;11.80;;;;;;;3.03;84.98;97222.02;108340;1273;59770;-67
2021/12/30 03:53:02;;;;;;;19.20;12.30;;;;;;;3.04;84.71;97226.27;108086;1274;70606;-66
2021/12/30 03:55:31;;;;;;;21.40;12.90;;;;;;;3.03;84.73;97226.96;107977;1272;68713;-69
2021/12/30 03:58:01;;;;;;;19.70;11.60;;;;;;;3.04;84.69;97227.46;107974;1275;69580;-68
2021/12/30 04:00:32;;;;;;;22.00;13.10;;;;;;;3.05;84.69;97231.89;107998;1271;59781;-67
2021/12/30 04:03:02;;;;;;;17.40;10.20;;;;;;;3.05;84.68;97233.62;108016;1272;59627;-70
2021/12/30 04:05:31;;;;;;;19.40;11.10;;;;;;;3.06;84.58;97237.87;108097;1272;70787;-69
2021/12/30 04:08:01;;;;;;;17.10;11.00;;;;;;;3.06;84.60;97238.90;108022;1272;68482;-67
2021/12/30 04:10:31;;;;;;;19.00;11.50;;;;;;;3.07;84.63;97245.77;108167;1274;68665;-68
2021/12/30 04:13:00;;;;;;;22.60;13.40;;;;;;;3.08;84.57;97248.32;108061;1275;59733;-68
2021/12/30 04:15:29;;;;;;;19.00;12.00;;;;;;;3.08;84.55;97255.53;108083;1272;59708;-70
2021/12/30 04:17:58;;;;;;;18.60;12.80;;;;;;;3.08;84.53;97259.13;108160;1274;70780;-69
2021/12/30 04:20:27;;;;;;;15.00;10.30;;;;;;;3.09;84.43;97259.60;108118;1274;66859;-66
2021/12/30 04:22:57;;;;;;;21.10;11.70;;;;;;;3.08;84.66;97262.76;108110;1272;68711;-68
2021/12/30 04:25:27;;;;;;;18.50;11.80;;;;;;;3.08;84.78;97262.45;108050;1273;59120;-68
2021/12/30 04:27:57;;;;;;;19.70;11.60;;;;;;;3.09;84.58;97264.62;108035;1272;59725;-68
2021/12/30 04:30:27;;;;;;;14.90;9.30;;;;;;;3.09;84.41;97270.80;108021;1273;70924;-69
2021/12/30 04:32:56;;;;;;;17.10;11.20;;;;;;;3.10;84.27;97275.77;108174;1274;68548;-68
2021/12/30 04:35:31;;;;;;;18.50;10.50;;;;;;;3.10;84.27;97282.30;108097;1275;69312;-67
2021/12/30 04:38:01;;;;;;;20.50;12.10;;;;;;;3.10;84.33;97281.26;108160;1272;59674;-68
2021/12/30 04:40:30;;;;;;;21.90;12.30;;;;;;;3.11;84.34;97282.24;107906;1274;59697;-68
2021/12/30 04:42:59;;;;;;;15.80;9.80;;;;;;;3.10;84.32;97289.19;107900;1275;71619;-68
2021/12/30 04:45:29;;;;;;;17.80;11.10;;;;;;;3.10;84.30;97289.88;107717;1273;67315;-68
2021/12/30 04:48:00;;;;;;;17.20;11.20;;;;;;;3.09;84.27;97288.91;107980;1272;68628;-68
2021/12/30 04:50:30;;;;;;;15.40;10.70;;;;;;;3.07;84.25;97285.73;107943;1272;59691;-67
2021/12/30 04:53:00;;;;;;;18.10;11.80;;;;;;;3.06;84.19;97286.43;107914;1275;59692;-67
2021/12/30 04:55:29;;;;;;;16.30;10.70;;;;;;;3.05;84.27;97287.67;108076;1274;71536;-67
2021/12/30 04:58:00;;;;;;;13.30;8.60;;;;;;;3.05;84.17;97288.90;108064;1272;67765;-68
2021/12/30 05:00:29;;;;;;;;;;;;;;;3.04;84.19;97292.38;108051;1272;69582;-67
2021/12/30 05:03:22;;;;;;;27.00;16.40;;;;;;;2.95;84.92;97297.27;107867;1272;59785;-69
2021/12/30 05:05:51;;;;;;;;;;;;;;;2.85;85.27;97304.73;108091;1272;59708;-68
2021/12/30 05:08:24;;;;;;;27.00;16.50;;;;;;;2.78;85.56;97314.17;108138;1271;71571;-68
2021/12/30 05:10:54;;;;;;;21.90;12.80;;;;;;;2.74;85.40;97317.48;108161;1274;68751;-68
2021/12/30 05:13:23;;;;;;;22.30;14.20;;;;;;;2.74;85.10;97324.67;108096;1272;69408;-67
2021/12/30 05:15:53;;;;;;;26.00;16.80;;;;;;;2.74;85.32;97327.10;107835;1271;60136;-68
2021/12/30 05:18:31;;;;;;;29.50;17.60;;;;;;;2.72;85.66;97335.25;107917;1273;59725;-67
2021/12/30 05:21:03;;;;;;;27.00;16.70;;;;;;;2.72;85.64;97341.11;107949;1272;71585;-68
2021/12/30 05:23:33;;;;;;;21.60;13.90;;;;;;;2.72;85.18;97343.87;107935;1273;68631;-69
2021/12/30 05:26:03;;;;;;;21.60;14.30;;;;;;;2.74;85.07;97348.08;107907;1271;68985;-68
2021/12/30 05:28:32;;;;;;;;;;;;;;;2.74;85.32;97351.52;107972;1274;59760;-68
2021/12/30 05:31:02;;;;;;;26.10;15.80;;;;;;;2.74;86.00;97349.27;108042;1273;59688;-68
2021/12/30 05:33:32;;;;;;;22.30;13.20;;;;;;;2.75;86.05;97356.14;107984;1272;70413;-69
2021/12/30 05:36:01;;;;;;;21.40;11.80;;;;;;;2.76;85.58;97361.05;108217;1270;68751;-68
2021/12/30 05:38:30;;;;;;;20.10;13.40;;;;;;;2.78;85.34;97361.33;108183;1272;69946;-68
2021/12/30 05:40:59;;;;;;;24.10;15.50;;;;;;;2.78;85.62;97363.23;108046;1271;59687;-68
2021/12/30 05:43:29;;;;;;;28.20;16.70;;;;;;;2.77;85.81;97373.42;108130;1272;59714;-67
2021/12/30 05:45:58;;;;;;;25.00;16.40;;;;;;;2.75;85.69;97376.59;108069;1272;70930;-69
2021/12/30 05:48:27;;;;;;;31.60;18.00;;;;;;;2.74;85.78;97380.30;108065;1272;67975;-66
2021/12/30 05:51:00;;;;;;;23.10;14.20;;;;;;;2.71;85.64;97387.30;107959;1272;68722;-68
2021/12/30 05:53:30;;;;;;;25.50;15.90;;;;;;;2.69;85.71;97389.75;107993;1272;59774;-66
2021/12/30 05:55:59;;;;;;;23.50;14.50;;;;;;;2.66;85.64;97385.92;108231;1272;59716;-69
2021/12/30 05:58:29;;;;;;;18.40;10.80;;;;;;;2.67;85.33;97388.98;108287;1272;70598;-69
2021/12/30 06:00:58;;;;;;;21.30;12.60;;;;;;;2.69;85.34;97388.75;108104;1272;67844;-67
2021/12/30 06:03:27;;;;;;;25.30;16.30;;;;;;;2.72;85.39;97393.42;108127;1272;68748;-68
2021/12/30 06:05:56;;;;;;;28.40;17.00;;;;;;;2.72;85.58;97392.92;108101;1272;59686;-66
2021/12/30 06:08:25;;;;;;;22.70;13.10;;;;;;;2.70;85.51;97399.02;108152;1270;59674;-67
2021/12/30 06:10:54;;;;;;;17.10;10.60;;;;;;;2.71;85.26;97404.14;108280;1272;70526;-69
2021/12/30 06:13:23;;;;;;;13.20;8.10;;;;;;;2.74;85.30;97411.40;108299;1272;68056;-68
2021/12/30 06:15:52;;;;;;;13.00;8.30;;;;;;;2.77;85.18;97420.05;108100;1273;69492;-68
2021/12/30 06:18:21;;;;;;;16.90;10.40;;;;;;;2.80;85.07;97422.48;108113;1275;59732;-68
2021/12/30 06:20:51;;;;;;;17.00;11.60;;;;;;;2.83;85.01;97425.00;108070;1272;59697;-67
2021/12/30 06:23:20;;;;;;;15.00;9.30;;;;;;;2.85;84.98;97424.39;108156;1272;71204;-67
2021/12/30 06:25:48;;;;;;;15.50;9.90;;;;;;;2.88;85.02;97427.20;108139;1272;68424;-69
2021/12/30 06:28:18;;;;;;;11.60;8.20;;;;;;;2.90;84.84;97433.64;108104;1270;68487;-69
2021/12/30 06:30:47;;;;;;;17.00;10.50;;;;;;;2.91;84.53;97436.00;108080;1272;59754;-68
2021/12/30 06:33:16;;;;;;;14.70;10.10;;;;;;;2.93;84.46;97439.05;108039;1271;59691;-68
2021/12/30 06:35:45;;;;;;;17.60;12.10;;;;;;;2.93;84.49;97445.91;108084;1271;71119;-69
2021/12/30 06:38:14;;;;;;;16.00;11.40;;;;;;;2.92;84.47;97453.85;108082;1270;69238;-67
2021/12/30 06:40:43;;;;;;;12.60;8.70;;;;;;;2.93;84.42;97461.39;108056;1274;68440;-67
2021/12/30 06:43:12;;;;;;;15.50;9.90;;;;;;;2.94;84.38;97464.25;108084;1272;59789;-69
2021/12/30 06:45:44;;;;;;;14.20;8.40;;;;;;;2.95;84.36;97468.89;108102;1273;60513;-68
2021/12/30 06:48:16;;;;;;;15.00;10.50;;;;;;;2.96;84.44;97469.73;108015;1273;71281;-69
2021/12/30 06:51:04;;;;;;;13.80;9.30;;;;;;;2.97;84.40;97477.42;108071;1272;68975;-65
2021/12/30 06:53:34;;;;;;;12.30;8.80;;;;;;;3.00;84.32;97488.12;108088;1272;69706;-67
2021/12/30 06:56:03;;;;;;;15.20;10.70;;;;;;;3.03;84.25;97488.52;108161;1269;59719;-67
2021/12/30 06:58:33;;;;;;;16.40;9.80;;;;;;;3.04;84.25;97489.50;108297;1269;59751;-68
2021/12/30 07:01:03;;;;;;;21.20;13.00;;;;;;;3.07;84.00;97490.43;108173;1269;70101;-68
2021/12/30 07:03:34;;;;;;;17.80;11.10;;;;;;;3.05;83.82;97487.92;108179;1268;67900;-68
2021/12/30 07:06:03;;;;;;;20.40;12.60;;;;;;;3.04;83.90;97491.41;107984;1269;70092;-68
2021/12/30 07:08:33;;;;;;;21.00;13.00;;;;;;;3.03;83.49;97494.05;107931;1272;59739;-67
2021/12/30 07:11:02;;;;;;;21.20;13.20;;;;;;;3.00;83.56;97496.03;108177;1269;59680;-68
2021/12/30 07:13:32;;;;;;;21.80;13.80;;;;;;;2.98;83.89;97498.54;108067;1271;71202;-67
2021/12/30 07:16:01;;;;;;;22.40;14.80;;;;;;;2.96;83.91;97507.06;107937;1271;68650;-66
2021/12/30 07:18:31;;;;;;;19.10;12.40;;;;;;;2.94;84.08;97509.23;108086;1272;69431;-66
2021/12/30 07:21:00;;;;;;;15.80;9.40;;;;;;;2.99;84.13;97510.56;108091;1272;59723;-66
2021/12/30 07:23:28;;;;;;;15.00;9.50;;;;;;;3.06;84.10;97516.29;108331;1269;59642;-66
2021/12/30 07:25:57;;;;;;;17.30;10.30;;;;;;;3.13;84.26;97519.80;108119;1273;71420;-66
2021/12/30 07:28:26;;;;;;;14.80;9.20;;;;;;;3.19;84.19;97527.30;108326;1269;68661;-66
2021/12/30 07:30:55;;;;;;;11.20;7.20;;;;;;;3.26;84.07;97532.52;108293;1269;69251;-67
2021/12/30 07:33:24;;;;;;;11.30;8.00;;;;;;;3.32;83.84;97532.09;108311;1269;59770;-66
2021/12/30 07:35:53;;;;;;;11.30;7.60;;;;;;;3.38;83.64;97530.84;108313;1269;59769;-66
2021/12/30 07:38:23;;;;;;;19.10;13.00;;;;;;;3.43;83.29;97533.36;108033;1270;71242;-67
2021/12/30 07:40:51;;;;;;;20.00;13.00;;;;;;;3.43;82.49;97538.20;108174;1272;68714;-67
2021/12/30 07:43:20;;;;;;;21.10;13.40;;;;;;;3.45;82.76;97541.56;108221;1272;69524;-69
2021/12/30 07:45:49;;;;;;;16.60;10.30;;;;;;;3.45;82.75;97547.06;108167;1269;59701;-67
2021/12/30 07:48:18;;;;;;;12.60;8.60;;;;;;;3.47;82.94;97549.37;108140;1271;59704;-67
2021/12/30 07:50:49;;;;;;;16.20;9.80;;;;;;;3.51;82.65;97556.96;108123;1272;71594;-68
2021/12/30 07:53:21;;;;;;;16.20;9.80;;;;;;;3.56;82.60;97560.05;108217;1269;68750;-68
2021/12/30 07:55:50;;;;;;;19.40;12.30;;;;;;;3.59;82.28;97561.13;108080;1271;68707;-67
2021/12/30 07:58:19;;;;;;;17.40;11.10;;;;;;;3.59;82.47;97565.43;108141;1269;59751;-68
2021/12/30 08:00:48;;;;;;;18.40;12.10;;;;;;;3.59;82.22;97574.90;108255;1269;59714;-67
2021/12/30 08:03:17;;;;;;;17.70;11.90;;;;;;;3.61;82.21;97581.06;108294;1269;70160;-67
2021/12/30 08:05:48;;;;;;;17.90;10.70;;;;;;;3.64;82.19;97586.27;108257;1272;67937;-66
2021/12/30 08:08:17;;;;;;;12.10;7.50;;;;;;;3.68;82.18;97595.57;108105;1270;68698;-68
2021/12/30 08:10:46;;;;;;;20.60;13.00;;;;;;;3.73;82.49;97599.85;108033;1271;59717;-68
2021/12/30 08:13:15;;;;;;;18.00;11.60;;;;;;;3.75;82.04;97601.65;108170;1269;59674;-68
2021/12/30 08:15:44;;;;;;;24.20;14.80;;;;;;;3.74;81.66;97603.91;108087;1272;71596;-67
2021/12/30 08:18:13;;;;;;;21.10;13.10;;;;;;;3.73;81.51;97606.90;108583;1271;68665;-67
2021/12/30 08:20:42;;;;;;;19.90;12.00;;;;;;;3.69;81.63;97607.92;108256;1271;69007;-67
2021/12/30 08:23:12;;;;;;;16.40;9.10;;;;;;;3.70;81.82;97613.59;108101;1269;59774;-68
2021/12/30 08:25:49;;;;;;;13.60;8.70;;;;;;;3.74;81.89;97621.49;108180;1270;59793;-68
2021/12/30 08:28:18;;;;;;;12.90;8.70;;;;;;;3.79;81.94;97626.65;108181;1269;71839;-68
2021/12/30 08:30:48;;;;;;;;;;;;;;;3.84;81.96;97632.29;108187;1269;68702;-68
2021/12/30 08:33:17;;;;;;;14.30;8.10;;;;;;;3.89;81.72;97635.35;108177;1270;67859;-67
2021/12/30 08:35:46;;;;;;;12.10;8.20;;;;;;;3.92;81.49;97640.06;108145;1269;59638;-68
2021/12/30 08:38:17;;;;;;;14.10;8.40;;;;;;;3.94;81.44;97640.31;108106;1269;59672;-69
2021/12/30 08:40:47;;;;;;;12.20;6.90;;;;;;;3.97;81.39;97641.91;108182;1269;72239;-67
2021/12/30 08:43:17;;;;;;;10.30;6.40;;;;;;;4.00;81.23;97642.33;108169;1269;68663;-66
2021/12/30 08:45:47;;;;;;;14.10;7.90;;;;;;;4.04;81.38;97648.33;108148;1269;69550;-68
2021/12/30 08:48:16;;;;;;;11.40;7.10;;;;;;;4.07;81.21;97649.41;108144;1269;59690;-67
2021/12/30 08:50:47;;;;;;;12.30;8.60;;;;;;;4.10;81.15;97649.44;108186;1269;59677;-67
2021/12/30 08:54:08;;;;;;;14.80;9.60;;;;;;;4.16;80.83;97645.23;104888;1298;597425;-67
2021/12/30 08:56:37;;;;;;;11.80;7.70;;;;;;;4.16;81.03;97652.83;106720;1282;57579;-67
2021/12/30 08:59:07;;;;;;;18.40;12.90;;;;;;;4.19;80.96;97653.72;106771;1278;57645;-68
2021/12/30 09:01:36;;;;;;;16.80;10.60;;;;;;;4.21;80.50;97651.77;106699;1282;69256;-68
2021/12/30 09:04:05;;;;;;;19.10;11.80;;;;;;;4.24;80.57;97650.58;106774;1282;68583;-68
2021/12/30 09:06:34;;;;;;;22.00;13.30;;;;;;;4.25;79.45;97653.67;106568;1282;273385;-69
2021/12/30 09:09:03;;;;;;;21.00;14.70;;;;;;;4.24;79.50;97655.23;107126;1279;57621;-66
2021/12/30 09:11:32;;;;;;;21.80;13.80;;;;;;;4.20;78.69;97658.34;107489;1272;57618;-66
2021/12/30 09:14:01;;;;;;;19.20;13.30;;;;;;;4.15;78.67;97658.58;107477;1272;68113;-69
2021/12/30 09:16:30;;;;;;;23.10;14.50;;;;;;;4.14;79.12;97654.81;107473;1272;67908;-67
2021/12/30 09:19:00;;;;;;;20.80;13.50;;;;;;;4.14;79.14;97650.67;107371;1272;68933;-67
2021/12/30 09:21:29;;;;;;;16.60;11.40;;;;;;;4.18;79.49;97658.11;107443;1272;58174;-67
2021/12/30 09:23:58;;;;;;;19.10;11.80;;;;;;;4.22;79.31;97660.84;107439;1272;58122;-66
2021/12/30 09:26:27;;;;;;;20.80;14.80;;;;;;;4.24;79.45;97665.75;107524;1272;69049;-67
2021/12/30 09:28:56;;;;;;;20.30;13.40;;;;;;;4.26;79.73;97664.48;107467;1273;69428;-66
2021/12/30 09:31:28;;;;;;;28.60;18.40;;;;;;;4.27;79.43;97668.23;107410;1274;69449;-68
2021/12/30 09:33:57;;;;;;;27.80;17.70;;;;;;;4.26;78.73;97671.53;107484;1273;58122;-69
2021/12/30 09:36:28;;;;;;;28.40;18.00;;;;;;;4.25;78.86;97677.63;107755;1269;58028;-68
2021/12/30 09:38:57;;;;;;;25.90;17.00;;;;;;;4.25;79.12;97679.20;107686;1269;69211;-69
2021/12/30 09:41:26;;;;;;;28.80;20.10;;;;;;;4.18;79.15;97676.71;107782;1269;68537;-69
2021/12/30 09:43:55;;;;;;;31.40;21.10;;;;;;;4.18;79.63;97677.06;107825;1269;69921;-67
2021/12/30 09:46:25;;;;;;;32.50;21.30;;;;;;;4.17;79.78;97685.58;107595;1270;58197;-69
2021/12/30 09:48:54;;;;;;;26.90;19.10;;;;;;;4.16;80.11;97688.04;107823;1267;58011;-70
2021/12/30 09:51:23;;;;;;;26.30;17.40;;;;;;;4.18;79.88;97687.23;107681;1269;68913;-68
2021/12/30 09:53:52;;;;;;;25.50;16.70;;;;;;;4.18;79.88;97684.30;107843;1269;69272;-68
2021/12/30 09:56:22;;;;;;;21.80;13.50;;;;;;;4.20;79.92;97685.77;107757;1269;69490;-68
2021/12/30 09:58:51;;;;;;;32.00;20.40;;;;;;;4.25;79.93;97687.97;107809;1269;58071;-67
2021/12/30 10:01:20;;;;;;;30.40;20.70;;;;;;;4.25;79.48;97691.27;107693;1266;58530;-69
2021/12/30 10:03:55;;;;;;;24.10;17.20;;;;;;;4.18;79.24;97692.76;107707;1269;70693;-69
2021/12/30 10:06:25;;;;;;;29.80;21.40;;;;;;;4.16;79.73;97693.90;107813;1269;68621;-68
2021/12/30 10:08:59;;;;;;;29.90;20.40;;;;;;;4.14;80.09;97685.53;107725;1266;68844;-69
2021/12/30 10:11:28;;;;;;;30.20;21.20;;;;;;;4.19;80.10;97677.56;107552;1272;58435;-67
2021/12/30 10:14:02;;;;;;;28.80;17.50;;;;;;;4.23;79.99;97675.96;107610;1272;58061;-68
2021/12/30 10:16:30;;;;;;;29.30;19.70;;;;;;;4.23;79.42;97673.92;107665;1269;70740;-66
2021/12/30 10:19:05;;;;;;;27.30;17.00;;;;;;;4.22;79.47;97676.02;107790;1269;68194;-69
2021/12/30 10:21:41;;;;;;;29.20;20.20;;;;;;;4.29;79.56;97673.83;107742;1269;68717;-67
2021/12/30 10:24:12;;;;;;;33.90;21.90;;;;;;;4.31;79.58;97672.36;107794;1269;58115;-68
2021/12/30 10:26:57;;;;;;;32.00;21.70;;;;;;;4.33;79.92;97679.02;107815;1267;58073;-67
2021/12/30 10:29:27;;;;;;;34.20;23.10;;;;;;;4.34;79.63;97677.58;107789;1269;70027;-68
2021/12/30 10:31:56;;;;;;;;;;;;;;;4.25;79.32;97676.75;107637;1269;67870;-68
2021/12/30 10:34:26;;;;;;;;;;;;;;;4.24;79.57;97673.36;107872;1269;69591;-68
2021/12/30 10:36:55;;;;;;;28.10;18.70;;;;;;;4.23;79.59;97672.87;107787;1266;58071;-69
2021/12/30 10:39:30;;;;;;;28.10;18.10;;;;;;;4.18;79.84;97666.90;107766;1269;58119;-68
2021/12/30 10:42:05;;;;;;;32.10;21.80;;;;;;;4.14;79.62;97667.60;107830;1267;70026;-67
2021/12/30 10:45:01;;;;;;;31.00;20.10;;;;;;;4.06;80.15;97666.01;107796;1269;68575;-68
2021/12/30 10:47:53;;;;;;;31.70;21.10;;;;;;;4.00;80.52;97662.63;107798;1269;69794;-66
2021/12/30 10:50:24;;;;;;;33.90;21.70;;;;;;;3.99;80.34;97658.36;107776;1269;58113;-67
2021/12/30 10:52:56;;;;;;;30.40;20.40;;;;;;;3.98;80.38;97649.48;107678;1269;58044;-68
2021/12/30 10:55:24;;;;;;;32.90;20.80;;;;;;;4.00;80.48;97646.44;107646;1269;69270;-69
2021/12/30 10:57:55;;;;;;;31.40;21.70;;;;;;;4.06;80.20;97645.83;107740;1269;67133;-69
2021/12/30 11:00:27;;;;;;;34.30;22.60;;;;;;;4.12;80.00;97641.27;107734;1269;68652;-68
2021/12/30 11:03:24;;;;;;;26.20;17.20;;;;;;;4.20;78.92;97640.23;107725;1269;58054;-68
2021/12/30 11:06:19;;;;;;;24.40;16.40;;;;;;;4.28;78.79;97638.52;107790;1270;58111;-69
2021/12/30 11:09:02;;;;;;;30.40;19.20;;;;;;;4.44;78.82;97639.68;107771;1269;69138;-67
2021/12/30 11:11:30;;;;;;;30.90;20.50;;;;;;;4.54;77.91;97637.35;107754;1269;68756;-69
2021/12/30 11:14:07;;;;;;;23.80;14.70;;;;;;;4.62;78.15;97634.91;107762;1270;69327;-68
2021/12/30 11:17:01;;;;;;;26.60;17.10;;;;;;;4.80;78.52;97641.34;107763;1269;58078;-68
2021/12/30 11:19:32;;;;;;;27.10;16.60;;;;;;;4.97;78.13;97640.38;107768;1268;58115;-68
2021/12/30 11:22:04;;;;;;;35.00;22.30;;;;;;;5.05;77.26;97639.66;107777;1269;69336;-67
2021/12/30 11:24:34;;;;;;;28.40;16.70;;;;;;;5.01;76.62;97641.39;107875;1269;69190;-68
2021/12/30 11:27:05;;;;;;;;;;;;;;;5.01;76.74;97633.77;107798;1269;69486;-66
2021/12/30 11:29:36;;;;;;;26.00;17.60;;;;;;;5.02;76.59;97637.91;107674;1269;58504;-67
2021/12/30 11:32:08;;;;;;;28.20;18.50;;;;;;;5.08;77.08;97645.55;107835;1270;58061;-70
2021/12/30 11:34:37;;;;;;;30.80;21.50;;;;;;;5.13;76.35;97648.80;107836;1269;69979;-69
2021/12/30 11:37:06;;;;;;;26.30;16.70;;;;;;;5.09;76.14;97651.88;107731;1270;68622;-68
2021/12/30 11:39:44;;;;;;;26.10;17.00;;;;;;;5.10;76.65;97652.88;107742;1269;69565;-67